createdAt,value
2019-02-19T00:04:30.451Z,16.07
2019-02-19T00:09:41.696Z,12.20
2019-02-19T00:14:53.982Z,13.20
2019-02-19T00:20:05.831Z,13.23
2019-02-19T00:25:17.679Z,12.93
2019-02-19T00:30:28.949Z,18.03
2019-02-19T00:35:40.879Z,17.10
2019-02-19T00:40:52.291Z,13.60
2019-02-19T00:46:04.074Z,17.83
2019-02-19T00:51:16.133Z,15.03
2019-02-19T00:56:28.342Z,16.63
2019-02-19T01:01:40.427Z,15.43
2019-02-19T01:06:52.619Z,16.13
2019-02-19T01:12:04.702Z,17.90
2019-02-19T01:17:16.688Z,14.60
2019-02-19T01:22:28.855Z,17.80
2019-02-19T01:27:40.848Z,17.03
2019-02-19T01:32:52.439Z,12.77
2019-02-19T01:38:04.500Z,13.53
2019-02-19T01:43:16.288Z,15.43
2019-02-19T01:48:27.875Z,17.13
2019-02-19T01:53:39.647Z,17.70
2019-02-19T01:58:58.550Z,16.93
2019-02-19T02:04:10.447Z,14.50
2019-02-19T02:09:22.716Z,16.37
2019-02-19T02:14:34.598Z,17.80
2019-02-19T02:19:46.400Z,16.13
2019-02-19T02:24:57.900Z,13.87
2019-02-19T02:30:09.964Z,14.90
2019-02-19T02:35:21.852Z,14.47
2019-02-19T02:40:34.033Z,14.53
2019-02-19T02:45:52.689Z,11.23
2019-02-19T02:51:00.032Z,12.30
2019-02-19T02:56:11.793Z,11.90
2019-02-19T03:01:23.582Z,13.00
2019-02-19T03:12:07.083Z,17.53
2019-02-19T03:17:18.587Z,11.30
2019-02-19T03:22:30.474Z,10.90
2019-02-19T03:27:42.569Z,13.20
2019-02-19T03:32:54.424Z,13.30
2019-02-19T03:38:06.169Z,13.20
2019-02-19T03:43:18.036Z,17.97
2019-02-19T03:48:29.971Z,13.77
2019-02-19T03:53:41.333Z,13.57
2019-02-19T03:58:52.793Z,17.40
2019-02-19T04:04:04.085Z,16.27
2019-02-19T04:09:15.511Z,16.67
2019-02-19T04:14:26.765Z,17.27
2019-02-19T04:19:38.751Z,15.73
2019-02-19T04:24:50.156Z,15.50
2019-02-19T04:30:02.146Z,21.60
2019-02-19T04:35:15.334Z,16.43
2019-02-19T04:40:26.514Z,23.70
2019-02-19T04:45:37.867Z,16.47
2019-02-19T04:50:50.011Z,23.77
2019-02-19T04:56:01.922Z,28.83
2019-02-19T05:01:14.032Z,22.33
2019-02-19T05:06:25.491Z,31.03
2019-02-19T05:11:37.077Z,25.43
2019-02-19T05:16:48.502Z,29.47
2019-02-19T05:22:00.461Z,26.90
2019-02-19T05:27:12.327Z,29.37
2019-02-19T05:32:24.379Z,29.00
2019-02-19T05:37:36.574Z,25.80
2019-02-19T05:42:48.461Z,20.90
2019-02-19T05:48:00.594Z,28.83
2019-02-19T05:53:11.858Z,29.27
2019-02-19T05:58:23.886Z,27.80
2019-02-19T06:03:35.844Z,27.97
2019-02-19T06:08:47.480Z,29.30
2019-02-19T06:13:59.206Z,29.83
2019-02-19T06:19:10.610Z,31.13
2019-02-19T06:24:22.499Z,25.80
2019-02-19T06:29:33.753Z,28.43
2019-02-19T06:34:45.878Z,33.10
2019-02-19T06:39:57.807Z,31.83
2019-02-19T06:45:07.904Z,38.53
2019-02-19T06:50:27.038Z,31.80
2019-02-19T06:55:38.867Z,32.43
2019-02-19T07:06:08.769Z,30.43
2019-02-19T07:11:08.405Z,29.20
2019-02-19T07:16:27.556Z,29.20
2019-02-19T07:21:39.526Z,30.50
2019-02-19T07:26:51.442Z,27.93
2019-02-19T07:32:03.450Z,30.80
2019-02-19T07:37:17.810Z,31.90
2019-02-19T07:42:29.187Z,29.97
2019-02-19T07:47:40.991Z,30.80
2019-02-19T07:52:52.772Z,30.27
2019-02-19T07:58:04.369Z,31.33
2019-02-19T08:03:16.044Z,34.50
2019-02-19T08:08:28.158Z,29.87
2019-02-19T08:13:39.802Z,33.20
2019-02-19T08:18:51.760Z,27.80
2019-02-19T08:24:03.806Z,37.60
2019-02-19T08:29:15.387Z,28.77
2019-02-19T08:34:27.070Z,25.33
2019-02-19T08:39:39.191Z,37.80
2019-02-19T08:44:51.162Z,34.67
2019-02-19T08:50:02.698Z,25.83
2019-02-19T08:55:15.416Z,31.07
2019-02-19T09:00:27.535Z,27.57
2019-02-19T09:05:38.998Z,29.20
2019-02-19T09:10:38.672Z,26.70
2019-02-19T09:15:57.539Z,29.13
2019-02-19T09:21:08.936Z,28.10
2019-02-19T09:26:08.603Z,28.43
2019-02-19T09:31:08.289Z,22.43
2019-02-19T09:36:19.963Z,29.30
2019-02-19T09:41:31.903Z,27.27
2019-02-19T09:46:43.355Z,21.97
2019-02-19T09:51:54.567Z,27.77
2019-02-19T09:57:05.784Z,25.50
2019-02-19T10:02:17.442Z,18.83
2019-02-19T10:07:29.250Z,19.67
2019-02-19T10:12:28.937Z,22.97
2019-02-19T10:17:47.838Z,22.80
2019-02-19T10:22:59.139Z,18.83
2019-02-19T10:28:10.988Z,30.77
2019-02-19T10:33:22.550Z,21.07
2019-02-19T10:38:34.427Z,27.73
2019-02-19T10:43:45.766Z,22.33
2019-02-19T10:48:57.766Z,19.10
2019-02-19T10:54:09.035Z,23.83
2019-02-19T10:59:21.161Z,21.63
2019-02-19T11:04:33.018Z,21.90
2019-02-19T11:09:44.298Z,24.60
2019-02-19T11:14:55.597Z,20.53
2019-02-19T11:20:07.610Z,18.53
2019-02-19T11:25:19.788Z,24.67
2019-02-19T11:30:31.835Z,18.53
2019-02-19T11:35:43.090Z,18.93
2019-02-19T11:40:55.006Z,20.57
2019-02-19T11:46:06.475Z,13.03
2019-02-19T11:51:18.606Z,19.00
2019-02-19T11:56:30.934Z,20.90
2019-02-19T12:01:42.539Z,20.43
2019-02-19T12:06:54.518Z,17.43
2019-02-19T12:12:05.754Z,16.57
2019-02-19T12:17:17.490Z,19.17
2019-02-19T12:22:29.047Z,16.83
2019-02-19T12:27:41.210Z,16.03
2019-02-19T12:32:52.484Z,12.77
2019-02-19T12:38:04.399Z,16.57
2019-02-19T12:43:15.878Z,9.53
2019-02-19T12:48:27.099Z,16.50
2019-02-19T12:53:39.894Z,13.77
2019-02-19T12:58:52.158Z,14.20
2019-02-19T13:04:05.136Z,18.90
2019-02-19T13:09:17.227Z,12.27
2019-02-19T13:14:29.134Z,10.63
2019-02-19T13:19:40.354Z,14.67
2019-02-19T13:24:52.294Z,13.60
2019-02-19T13:30:04.174Z,11.87
2019-02-19T13:35:16.155Z,13.90
2019-02-19T13:40:27.770Z,6.80
2019-02-19T13:45:39.550Z,11.93
2019-02-19T13:50:51.529Z,9.60
2019-02-19T13:56:04.450Z,14.43
2019-02-19T14:01:16.278Z,10.40
2019-02-19T14:06:28.285Z,13.87
2019-02-19T14:11:40.034Z,15.53
2019-02-19T14:16:55.458Z,13.30
2019-02-19T14:22:26.082Z,13.50
2019-02-19T14:27:47.955Z,13.67
2019-02-19T14:33:10.403Z,12.87
2019-02-19T14:38:41.599Z,6.30
2019-02-19T14:44:12.766Z,8.90
2019-02-19T14:49:47.461Z,6.90
2019-02-19T14:55:10.098Z,14.60
2019-02-19T15:00:41.076Z,12.30
2019-02-19T15:06:12.007Z,12.90
2019-02-19T15:11:43.201Z,7.13
2019-02-19T15:17:14.327Z,6.03
2019-02-19T15:22:34.606Z,9.57
2019-02-19T15:28:05.701Z,11.13
2019-02-19T15:33:36.514Z,20.03
2019-02-19T15:39:06.955Z,3.93
2019-02-19T15:44:27.355Z,5.27
2019-02-19T15:50:05.562Z,3.33
2019-02-19T15:55:28.578Z,11.23
2019-02-19T16:01:05.592Z,6.57
2019-02-19T16:06:24.217Z,19.77
2019-02-19T16:11:54.590Z,9.80
2019-02-19T16:17:25.774Z,9.50
2019-02-19T16:22:50.370Z,9.47
2019-02-19T16:28:20.850Z,4.87
2019-02-19T16:33:39.919Z,14.30
2019-02-19T16:39:10.712Z,12.57
2019-02-19T16:44:41.351Z,6.43
2019-02-19T16:50:12.539Z,9.93
2019-02-19T16:55:49.127Z,14.83
2019-02-19T17:01:22.762Z,9.07
2019-02-19T17:06:41.802Z,6.73
2019-02-19T17:12:23.511Z,6.27
2019-02-19T17:17:42.966Z,8.30
2019-02-19T17:23:14.139Z,7.73
2019-02-19T17:28:30.951Z,3.87
2019-02-19T17:34:08.154Z,6.60
2019-02-19T17:39:38.970Z,7.27
2019-02-19T17:45:10.070Z,6.20
2019-02-19T17:50:38.537Z,9.27
2019-02-19T17:56:14.192Z,9.00
2019-02-19T18:01:45.046Z,9.17
2019-02-19T18:07:30.671Z,7.63
2019-02-19T18:12:50.935Z,8.27
2019-02-19T18:18:15.543Z,7.33
2019-02-19T18:23:27.431Z,8.60
2019-02-19T18:28:38.930Z,7.30
2019-02-19T18:33:50.740Z,7.93
2019-02-19T18:39:02.710Z,7.77
2019-02-19T18:44:15.570Z,6.50
2019-02-19T18:49:27.373Z,7.33
2019-02-19T18:54:39.435Z,11.37
2019-02-19T18:59:53.842Z,7.60
2019-02-19T19:05:05.776Z,8.43
2019-02-19T19:10:18.759Z,11.63
2019-02-19T19:15:30.175Z,9.67
2019-02-19T19:20:42.459Z,12.43
2019-02-19T19:25:54.203Z,9.00
2019-02-19T19:31:06.134Z,7.00
2019-02-19T19:36:16.059Z,11.10
2019-02-19T19:41:34.947Z,13.23
2019-02-19T19:46:46.845Z,7.40
2019-02-19T19:51:58.106Z,12.80
2019-02-19T19:57:09.466Z,15.60
2019-02-19T20:02:21.406Z,16.10
2019-02-19T20:07:33.278Z,8.23
2019-02-19T20:12:44.923Z,8.57
2019-02-19T20:17:55.861Z,14.17
2019-02-19T20:23:14.747Z,11.47
2019-02-19T20:28:26.239Z,14.30
2019-02-19T20:33:38.351Z,12.20
2019-02-19T20:38:50.138Z,11.90
2019-02-19T20:44:01.416Z,6.67
2019-02-19T20:49:13.585Z,14.30
2019-02-19T20:54:24.836Z,13.03
2019-02-19T20:59:36.126Z,8.30
2019-02-19T21:04:48.254Z,14.83
2019-02-19T21:10:00.492Z,18.17
2019-02-19T21:15:13.851Z,17.03
2019-02-19T21:20:25.435Z,21.00
2019-02-19T21:25:37.714Z,14.53
2019-02-19T21:30:49.235Z,10.30
2019-02-19T21:36:00.608Z,17.83
2019-02-19T21:41:12.195Z,20.23
2019-02-19T21:46:23.742Z,20.87
2019-02-19T21:51:36.072Z,16.53
2019-02-19T21:56:47.593Z,21.53
2019-02-19T22:01:59.769Z,13.27
2019-02-19T22:07:11.074Z,12.60
2019-02-19T22:12:23.507Z,25.80
2019-02-19T22:17:35.493Z,18.50
2019-02-19T22:22:47.622Z,11.93
2019-02-19T22:27:59.546Z,20.93
2019-02-19T22:33:11.591Z,18.37
2019-02-19T22:38:23.749Z,20.13
2019-02-19T22:43:35.339Z,21.80
2019-02-19T22:48:47.286Z,24.13
2019-02-19T22:54:18.127Z,18.93
2019-02-19T22:59:30.086Z,24.87
2019-02-19T23:04:42.054Z,17.13
2019-02-19T23:09:55.540Z,20.43
2019-02-19T23:15:07.759Z,25.33
2019-02-19T23:20:19.812Z,17.20
2019-02-19T23:25:31.527Z,19.60
2019-02-19T23:30:43.446Z,22.50
2019-02-19T23:35:58.577Z,21.00
2019-02-19T23:41:17.459Z,18.33
2019-02-19T23:46:28.759Z,12.20
2019-02-19T23:51:40.323Z,23.33
2019-02-19T23:56:52.239Z,18.23
